Time;durP1;ratioP1;P1;durP2;ratioP2;P2;SDS_P1;SDS_P2;PMS_P1;PMS_P2;Temp;Humidity;BMP_temperature;BMP_pressure;BME280_temperature;BME280_humidity;BME280_pressure;Samples;Min_cycle;Max_cycle;Signal;HPM_P1;HPM_P2
2022/11/01 00:00:06;;;;;;;;;;;;;;;9.15;100.00;99402.00;4985345;28;19954;-89
2022/11/01 00:02:39;;;;;;;;;;;;;;;9.18;100.00;99389.50;4975396;28;19929;-90
2022/11/01 00:05:05;;;;;;;;;;;;;;;9.20;100.00;99395.56;4996483;23;19926;-88
2022/11/01 00:07:30;;;;;;;;;;;;;;;9.24;100.00;99388.41;4975432;28;20354;-86
2022/11/01 00:10:41;;;;;;;;;;;;;;;9.29;100.00;99380.28;4994365;28;19918;-89
2022/11/01 00:24:48;;;;;;;;;;;;;;;;;;;;;
2022/11/01 00:27:40;;;;;;;;;;;;;;;9.51;100.00;99386.31;4954528;29;19933;-92
2022/11/01 00:30:05;;;;;;;;;;;;;;;9.55;100.00;99382.59;4955504;28;20014;-86
2022/11/01 00:32:30;;;;;;;;;;;;;;;9.55;100.00;99385.22;4970392;28;19969;-89
2022/11/01 00:34:57;;;;;;;;;;;;;;;9.58;100.00;99381.59;4971246;28;19914;-88
2022/11/01 00:37:48;;;;;;;;;;;;;;;9.60;100.00;99390.31;4957123;28;19922;-93
2022/11/01 00:40:16;;;;;;;;;;;;;;;9.62;100.00;99376.09;4954570;28;19918;-89
2022/11/01 00:42:41;;;;;;;;;;;;;;;9.63;100.00;99388.38;4955177;28;20477;-91
2022/11/01 00:45:30;;;;;;;;;;;;;;;9.67;100.00;99382.97;4954360;29;19922;-92
2022/11/01 00:48:04;;;;;;;;;;;;;;;9.69;100.00;99384.63;4969607;28;19925;-88
2022/11/01 00:50:42;;;;;;;;;;;;;;;;;;;;;
2022/11/01 00:53:41;;;;;;;;;;;;;;;;;;;;;
2022/11/01 00:56:31;;;;;;;;;;;;;;;9.75;100.00;99396.72;4937447;29;19927;-94
2022/11/01 01:01:25;;;;;;;;;;;;;;;9.79;100.00;99395.63;5000899;23;20301;-92
2022/11/01 01:04:23;;;;;;;;;;;;;;;9.79;100.00;99390.34;4993488;28;20136;-91
2022/11/01 01:06:48;;;;;;;;;;;;;;;9.83;100.00;99389.28;4898417;29;19919;-88
2022/11/01 01:09:14;;;;;;;;;;;;;;;9.86;100.00;99390.91;4988006;28;19925;-88
2022/11/01 01:11:39;;;;;;;;;;;;;;;9.90;100.00;99379.28;4992441;28;19949;-89
2022/11/01 01:14:10;;;;;;;;;;;;;;;9.91;100.00;99381.00;4994050;28;20361;-90
2022/11/01 01:16:36;;;;;;;;;;;;;;;9.92;100.00;99382.69;4992623;28;19964;-86
2022/11/01 01:22:12;;;;;;;;;;;;;;;9.97;100.00;99386.84;5027921;23;19940;-88
2022/11/01 01:24:44;;;;;;;;;;;;;;;10.00;100.00;99380.53;4993309;28;20333;-88
2022/11/01 01:27:09;;;;;;;;;;;;;;;10.02;100.00;99383.13;4992246;28;19921;-88
2022/11/01 01:29:36;;;;;;;;;;;;;;;10.05;100.00;99391.78;4991400;28;19928;-91
2022/11/01 01:32:04;;;;;;;;;;;;;;;10.07;100.00;99399.63;5149388;23;20003;-90
2022/11/01 01:34:31;;;;;;;;;;;;;;;10.09;100.00;99397.78;4995460;28;19918;-89
2022/11/01 01:36:56;;;;;;;;;;;;;;;10.10;100.00;99399.50;4995513;28;19921;-89
2022/11/01 01:39:22;;;;;;;;;;;;;;;10.13;100.00;99402.88;4996201;28;19918;-88
2022/11/01 01:41:59;;;;;;;;;;;;;;;10.14;100.00;99401.06;4995606;28;19917;-90
2022/11/01 01:44:43;;;;;;;;;;;;;;;10.15;100.00;99401.00;4996066;28;19979;-88
2022/11/01 01:47:15;;;;;;;;;;;;;;;10.16;100.00;99407.16;4996783;28;19918;-90
2022/11/01 01:49:50;;;;;;;;;;;;;;;10.20;100.00;99414.03;4995660;28;20403;-87
2022/11/01 01:52:16;;;;;;;;;;;;;;;10.21;100.00;99414.88;4996133;28;19983;-89
2022/11/01 01:54:45;;;;;;;;;;;;;;;10.21;100.00;99409.59;4993228;28;20024;-92
2022/11/01 01:57:11;;;;;;;;;;;;;;;10.23;100.00;99408.59;4991040;28;20005;-89
2022/11/01 01:59:47;;;;;;;;;;;;;;;10.23;100.00;99408.59;4986291;28;19973;-92
2022/11/01 02:02:15;;;;;;;;;;;;;;;10.26;100.00;99413.75;4983145;28;19964;-88
2022/11/01 02:04:53;;;;;;;;;;;;;;;10.27;100.00;99412.78;4997806;28;19925;-93
2022/11/01 02:07:18;;;;;;;;;;;;;;;10.29;100.00;99403.00;4987026;28;19929;-87
2022/11/01 02:09:44;;;;;;;;;;;;;;;10.32;100.00;99402.91;4985151;28;20313;-89
2022/11/01 02:12:10;;;;;;;;;;;;;;;10.32;100.00;99405.53;4982867;28;19980;-87
2022/11/01 02:14:41;;;;;;;;;;;;;;;10.34;100.00;99406.31;4986757;28;19922;-92
2022/11/01 06:03:47;;;;;;;;;;;;;;;5.81;100.00;99607.63;5518620;23;19942;-89
2022/11/01 06:06:13;;;;;;;;;;;;;;;5.80;100.00;99605.91;4959631;28;19976;-89
2022/11/01 06:08:38;;;;;;;;;;;;;;;5.82;100.00;99611.97;4959604;28;19946;-88
2022/11/01 06:11:04;;;;;;;;;;;;;;;5.77;100.00;99616.50;4959642;28;20428;-88
2022/11/01 06:13:30;;;;;;;;;;;;;;;5.79;100.00;99622.56;4976663;28;19965;-89
2022/11/01 06:15:59;;;;;;;;;;;;;;;5.71;100.00;99621.91;4976672;28;19922;-89
2022/11/01 06:18:25;;;;;;;;;;;;;;;5.71;100.00;99621.91;4957107;28;19918;-89
2022/11/01 06:20:50;;;;;;;;;;;;;;;5.71;100.00;99629.78;4959284;28;20392;-87
2022/11/01 06:23:57;;;;;;;;;;;;;;;5.72;100.00;99634.16;4976981;28;19925;-86
2022/11/01 06:26:21;;;;;;;;;;;;;;;5.57;100.00;99645.94;4975964;28;20380;-88
2022/11/01 06:28:46;;;;;;;;;;;;;;;5.66;100.00;99655.34;4976583;28;19991;-89
2022/11/01 06:31:12;;;;;;;;;;;;;;;5.64;100.00;99661.50;4975365;28;19926;-89
2022/11/01 06:33:37;;;;;;;;;;;;;;;5.61;100.00;99658.94;4957661;28;19918;-86
2022/11/01 06:36:03;;;;;;;;;;;;;;;5.67;100.00;99683.38;4959231;28;19918;-86
2022/11/01 06:38:29;;;;;;;;;;;;;;;5.66;100.00;99684.25;4976444;28;19982;-86
2022/11/01 06:40:54;;;;;;;;;;;;;;;5.61;100.00;99700.13;4976363;28;19918;-87
2022/11/01 06:43:22;;;;;;;;;;;;;;;5.58;100.00;99702.84;4958893;28;19918;-85
2022/11/01 06:45:59;;;;;;;;;;;;;;;5.51;100.00;99717.91;4958718;28;20438;-86
2022/11/01 06:48:37;;;;;;;;;;;;;;;5.54;100.00;99724.84;4974831;28;19918;-87
2022/11/01 06:51:21;;;;;;;;;;;;;;;5.52;100.00;99738.03;4976226;28;19918;-92
2022/11/01 06:53:46;;;;;;;;;;;;;;;5.55;100.00;99732.72;4958757;28;19918;-92
2022/11/01 06:56:21;;;;;;;;;;;;;;;5.48;100.00;99746.03;4976109;28;20016;-90
2022/11/01 06:59:19;;;;;;;;;;;;;;;;;;;;;
2022/11/01 07:01:54;;;;;;;;;;;;;;;5.48;100.00;99744.25;4970970;28;20136;-89
2022/11/01 07:04:51;;;;;;;;;;;;;;;5.44;100.00;99751.34;4974119;28;19922;-89
2022/11/01 07:07:31;;;;;;;;;;;;;;;;;;;;;
2022/11/01 07:10:36;;;;;;;;;;;;;;;;;;;;;
2022/11/01 07:13:32;;;;;;;;;;;;;;;;;;;;;
2022/11/01 07:35:27;;;;;;;;;;;;;;;6.38;100.00;99839.47;4859319;29;20019;-91
2022/11/01 07:38:21;;;;;;;;;;;;;;;6.45;100.00;99843.69;4905954;29;19941;-91
2022/11/01 07:41:22;;;;;;;;;;;;;;;6.43;100.00;99848.13;4934401;29;19918;-90
2022/11/01 07:44:13;;;;;;;;;;;;;;;6.40;100.00;99842.94;4859817;29;19924;-92
2022/11/01 07:47:08;;;;;;;;;;;;;;;6.44;100.00;99855.13;4934612;29;19927;-90
2022/11/01 07:50:15;;;;;;;;;;;;;;;;;;;;;
2022/11/01 07:52:46;;;;;;;;;;;;;;;6.49;100.00;99869.03;4958730;28;20380;-90
2022/11/01 07:55:44;;;;;;;;;;;;;;;;;;;;;
2022/11/01 07:58:26;;;;;;;;;;;;;;;6.44;100.00;99871.78;4938243;28;19920;-91
2022/11/01 08:01:02;;;;;;;;;;;;;;;6.50;100.00;99870.78;4949959;28;19949;-90
2022/11/01 08:03:58;;;;;;;;;;;;;;;;;;;;;
2022/11/01 08:09:42;;;;;;;;;;;;;;;;;;;;;
2022/11/01 08:12:37;;;;;;;;;;;;;;;6.55;100.00;99889.94;4994653;28;20365;-91
2022/11/01 08:15:28;;;;;;;;;;;;;;;;;;;;;
2022/11/01 13:58:22;;;;;;;;;;;;;;;6.34;100.00;99972.91;5397932;23;19934;-92
2022/11/01 14:03:41;;;;;;;;;;;;;;;6.43;100.00;99975.34;4999407;23;19926;-90
2022/11/01 14:06:10;;;;;;;;;;;;;;;6.42;100.00;99970.13;4995834;28;19993;-95
2022/11/01 14:08:50;;;;;;;;;;;;;;;6.45;100.00;99970.91;4996586;28;20369;-90
2022/11/01 14:11:45;;;;;;;;;;;;;;;6.43;100.00;99969.19;4994416;28;19971;-91
2022/11/01 14:14:39;;;;;;;;;;;;;;;6.41;100.00;99968.38;4974176;28;20298;-88
2022/11/01 14:20:19;;;;;;;;;;;;;;;;;;;;;
2022/11/01 14:22:48;;;;;;;;;;;;;;;6.39;100.00;99980.72;4997834;28;20262;-90
2022/11/01 14:25:16;;;;;;;;;;;;;;;6.33;100.00;99969.44;4996601;28;19918;-90
2022/11/01 14:28:08;;;;;;;;;;;;;;;6.32;100.00;99985.25;4993289;28;19961;-89
2022/11/01 14:35:45;;;;;;;;;;;;;;;6.36;100.00;99979.00;5286082;23;19926;-88
2022/11/01 14:38:40;;;;;;;;;;;;;;;6.36;100.00;99982.50;5125049;23;19988;-89
2022/11/01 14:41:08;;;;;;;;;;;;;;;6.31;100.00;99987.00;4972468;28;19948;-89
2022/11/01 14:43:56;;;;;;;;;;;;;;;6.39;100.00;99983.34;4954603;28;20041;-89
2022/11/01 14:46:41;;;;;;;;;;;;;;;6.36;100.00;99987.75;4974778;28;19925;-87
2022/11/01 14:55:26;;;;;;;;;;;;;;;6.31;100.00;99987.00;5244918;23;19930;-91
2022/11/01 15:01:04;;;;;;;;;;;;;;;6.31;100.00;99984.38;4944009;28;19922;-93
2022/11/01 15:03:45;;;;;;;;;;;;;;;6.30;100.00;99987.03;4958280;28;19969;-93
2022/11/01 15:06:14;;;;;;;;;;;;;;;6.28;100.00;99984.44;4977908;28;19957;-88
2022/11/01 15:12:15;;;;;;;;;;;;;;;6.26;100.00;99982.75;4874082;29;19924;-91
2022/11/01 15:14:42;;;;;;;;;;;;;;;6.27;100.00;99982.72;4969209;28;19922;-91
2022/11/01 15:17:18;;;;;;;;;;;;;;;6.25;100.00;99989.75;4958416;28;19948;-89
2022/11/01 15:20:25;;;;;;;;;;;;;;;;;;;;;
2022/11/01 15:23:00;;;;;;;;;;;;;;;6.28;100.00;99989.69;4970633;28;19930;-91
2022/11/01 15:28:18;;;;;;;;;;;;;;;6.22;100.00;99991.59;4934394;29;19919;-92
2022/11/01 15:31:10;;;;;;;;;;;;;;;;;;;;;
2022/11/01 15:33:48;;;;;;;;;;;;;;;;;;;;;
2022/11/01 15:36:25;;;;;;;;;;;;;;;6.22;100.00;100002.13;4935266;29;19918;-91
2022/11/01 15:42:17;;;;;;;;;;;;;;;;;;;;;
2022/11/01 15:45:21;;;;;;;;;;;;;;;;;;;;;
2022/11/01 15:47:46;;;;;;;;;;;;;;;6.26;100.00;99995.91;4984532;23;19926;-91
2022/11/01 15:50:12;;;;;;;;;;;;;;;6.25;100.00;99999.44;4978079;28;20017;-95
2022/11/01 15:52:37;;;;;;;;;;;;;;;6.26;100.00;100004.66;4978424;28;19964;-90
2022/11/01 15:55:22;;;;;;;;;;;;;;;6.26;100.00;100004.66;4976147;28;20381;-91
2022/11/01 15:57:54;;;;;;;;;;;;;;;6.20;100.00;100003.94;4976051;28;20329;-91
2022/11/01 16:06:05;;;;;;;;;;;;;;;6.18;100.00;99996.06;5388643;23;19929;-86
2022/11/01 16:08:44;;;;;;;;;;;;;;;6.20;100.00;99996.03;4976287;28;19921;-90
2022/11/01 16:11:09;;;;;;;;;;;;;;;6.15;100.00;99991.72;4976091;28;19933;-91
2022/11/01 16:13:35;;;;;;;;;;;;;;;6.16;100.00;99992.63;4974928;28;19922;-91
2022/11/01 16:16:09;;;;;;;;;;;;;;;6.18;100.00;99994.31;4994220;28;19941;-91
2022/11/01 16:18:35;;;;;;;;;;;;;;;6.22;100.00;100002.13;4958908;28;19922;-92
2022/11/01 16:21:23;;;;;;;;;;;;;;;6.18;100.00;100003.97;4957621;28;20370;-87
2022/11/01 16:23:51;;;;;;;;;;;;;;;6.20;100.00;100010.06;4973505;28;20285;-90
2022/11/01 16:26:18;;;;;;;;;;;;;;;6.18;100.00;100017.13;4992678;28;19929;-90
2022/11/01 16:28:54;;;;;;;;;;;;;;;;;;;;;
2022/11/01 16:31:40;;;;;;;;;;;;;;;;;;;;;
2022/11/01 16:34:21;;;;;;;;;;;;;;;6.17;100.00;100021.53;4994606;28;19922;-90
2022/11/01 16:36:46;;;;;;;;;;;;;;;6.16;100.00;100026.81;4976665;28;19952;-90
2022/11/01 16:39:29;;;;;;;;;;;;;;;6.17;100.00;100026.78;4989600;28;19957;-88
2022/11/01 16:41:55;;;;;;;;;;;;;;;6.12;100.00;100030.41;4973965;28;19924;-87
2022/11/01 16:44:22;;;;;;;;;;;;;;;6.09;100.00;100033.94;4993288;28;20296;-91
2022/11/01 16:46:48;;;;;;;;;;;;;;;6.14;100.00;100033.84;4993071;28;20153;-88
2022/11/01 16:49:14;;;;;;;;;;;;;;;6.13;100.00;100025.13;4992866;28;19918;-90
2022/11/01 16:51:50;;;;;;;;;;;;;;;;;;;;;
2022/11/01 16:54:15;;;;;;;;;;;;;;;6.14;100.00;100023.34;4992907;28;19929;-88
2022/11/01 16:57:07;;;;;;;;;;;;;;;6.15;100.00;100035.59;4993338;28;20032;-92
2022/11/01 16:59:32;;;;;;;;;;;;;;;6.11;100.00;100031.28;4962124;28;19977;-91
2022/11/01 17:02:01;;;;;;;;;;;;;;;6.11;100.00;100031.28;4974949;28;20060;-87
2022/11/01 17:04:32;;;;;;;;;;;;;;;6.10;100.00;100040.09;4997285;28;20693;-93
2022/11/01 17:06:57;;;;;;;;;;;;;;;6.08;100.00;100036.63;4979411;28;20436;-86
2022/11/01 17:09:23;;;;;;;;;;;;;;;6.06;100.00;100039.28;4997481;28;20009;-87
2022/11/01 17:11:53;;;;;;;;;;;;;;;6.12;100.00;100043.56;4996414;28;19917;-87
2022/11/01 17:14:27;;;;;;;;;;;;;;;6.08;100.00;100053.28;4978375;28;19925;-87
2022/11/01 17:16:54;;;;;;;;;;;;;;;6.06;100.00;100044.53;4997411;28;19929;-87
2022/11/01 17:19:20;;;;;;;;;;;;;;;6.05;100.00;100052.47;4979802;28;20000;-87
2022/11/01 17:21:48;;;;;;;;;;;;;;;6.08;100.00;100055.03;4997324;28;19948;-89
2022/11/01 17:24:27;;;;;;;;;;;;;;;6.08;100.00;100052.41;4995603;28;19922;-88
2022/11/01 17:27:03;;;;;;;;;;;;;;;6.03;100.00;100054.25;4996789;28;19918;-91
2022/11/01 17:29:31;;;;;;;;;;;;;;;6.00;100.00;100061.31;4995982;28;20392;-89
2022/11/01 17:32:11;;;;;;;;;;;;;;;5.99;100.00;100054.31;4995843;28;19964;-89
2022/11/01 17:34:47;;;;;;;;;;;;;;;5.99;100.00;100062.22;4995332;28;19983;-89
2022/11/01 17:37:21;;;;;;;;;;;;;;;6.04;100.00;100053.38;4995353;28;19960;-88
2022/11/01 17:40:04;;;;;;;;;;;;;;;;;;;;;
2022/11/01 17:42:29;;;;;;;;;;;;;;;6.06;100.00;100062.09;4995620;28;19925;-92
2022/11/01 17:44:55;;;;;;;;;;;;;;;6.02;100.00;100058.66;4997672;28;19985;-90
2022/11/01 17:47:27;;;;;;;;;;;;;;;5.98;100.00;100060.50;4979684;28;19987;-87
2022/11/01 17:50:14;;;;;;;;;;;;;;;5.99;100.00;100058.72;4996512;28;19922;-92
2022/11/01 17:52:53;;;;;;;;;;;;;;;5.97;100.00;100060.53;4936599;29;19988;-93
2022/11/01 17:58:47;;;;;;;;;;;;;;;6.01;100.00;100062.19;5024206;23;19926;-90
2022/11/01 18:01:15;;;;;;;;;;;;;;;5.98;100.00;100059.59;4997738;28;19972;-93
2022/11/01 18:04:01;;;;;;;;;;;;;;;5.95;100.00;100065.78;4999022;28;19918;-92
2022/11/01 18:06:42;;;;;;;;;;;;;;;;;;;;;
2022/11/01 18:15:45;;;;;;;;;;;;;;;5.94;100.00;100064.03;4995697;28;19972;-88
2022/11/01 18:21:03;;;;;;;;;;;;;;;;;;;;;
2022/11/01 18:24:06;;;;;;;;;;;;;;;5.99;100.00;100048.19;4966941;28;19929;-92
2022/11/01 18:32:44;;;;;;;;;;;;;;;5.90;100.00;100057.09;4842222;29;20359;-90
2022/11/01 18:35:31;;;;;;;;;;;;;;;5.93;100.00;100054.41;4957773;28;19929;-88
2022/11/01 18:38:15;;;;;;;;;;;;;;;;;;;;;
2022/11/01 18:40:41;;;;;;;;;;;;;;;5.87;100.00;100054.56;4976364;28;19941;-92
2022/11/01 18:45:49;;;;;;;;;;;;;;;5.90;100.00;100053.59;5042492;23;19933;-89
2022/11/01 18:57:09;;;;;;;;;;;;;;;;;;;;;
2022/11/01 18:59:42;;;;;;;;;;;;;;;5.81;100.00;100052.03;4974543;28;19922;-93
2022/11/01 19:02:26;;;;;;;;;;;;;;;;;;;;;
2022/11/01 19:05:24;;;;;;;;;;;;;;;5.85;100.00;100055.47;4976198;28;19918;-92
2022/11/01 19:07:59;;;;;;;;;;;;;;;5.82;100.00;100043.22;4970735;28;19929;-91
2022/11/01 19:10:45;;;;;;;;;;;;;;;5.80;100.00;100058.19;4975993;28;19924;-94
2022/11/01 19:13:22;;;;;;;;;;;;;;;5.75;100.00;100055.63;4965233;28;19949;-89
2022/11/01 19:15:57;;;;;;;;;;;;;;;5.80;100.00;100051.16;4974720;28;19925;-89
2022/11/01 19:18:53;;;;;;;;;;;;;;;5.80;100.00;100058.19;4974445;28;19971;-89
2022/11/01 19:21:21;;;;;;;;;;;;;;;5.76;100.00;100051.22;4974091;28;19918;-88
2022/11/01 19:23:48;;;;;;;;;;;;;;;5.80;100.00;100052.91;4974252;28;19937;-88
2022/11/01 19:26:34;;;;;;;;;;;;;;;5.73;100.00;100056.56;4964511;28;19922;-90
2022/11/01 19:29:08;;;;;;;;;;;;;;;5.74;100.00;100053.03;4974183;28;19922;-89
2022/11/01 19:31:39;;;;;;;;;;;;;;;5.72;100.00;100045.16;4975706;28;20373;-90
2022/11/01 19:34:12;;;;;;;;;;;;;;;5.80;100.00;100048.50;4973057;28;20444;-88
2022/11/01 19:36:39;;;;;;;;;;;;;;;5.78;100.00;100050.31;4973394;28;20008;-88
2022/11/01 19:39:26;;;;;;;;;;;;;;;5.81;100.00;100057.28;4973051;28;19918;-88
2022/11/01 19:41:53;;;;;;;;;;;;;;;5.79;100.00;100061.69;4967444;28;19918;-89
2022/11/01 19:44:23;;;;;;;;;;;;;;;5.83;100.00;100066.88;4945163;28;20025;-89
2022/11/01 19:46:51;;;;;;;;;;;;;;;5.78;100.00;100059.97;4980565;28;20437;-88
2022/11/01 19:49:35;;;;;;;;;;;;;;;;;;;;;
2022/11/01 19:52:06;;;;;;;;;;;;;;;5.78;100.00;100070.50;4992259;28;19917;-88
2022/11/01 19:54:34;;;;;;;;;;;;;;;5.75;100.00;100076.66;4992205;28;20424;-89
2022/11/01 19:57:00;;;;;;;;;;;;;;;5.73;100.00;100074.97;4999313;23;20282;-89
2022/11/01 19:59:25;;;;;;;;;;;;;;;5.73;100.00;100065.31;4992971;28;19933;-89
2022/11/01 20:02:01;;;;;;;;;;;;;;;;;;;;;
2022/11/01 20:04:31;;;;;;;;;;;;;;;5.74;100.00;100066.19;4977469;28;19929;-89
2022/11/01 20:07:11;;;;;;;;;;;;;;;5.67;100.00;100062.81;4974800;28;19972;-90
2022/11/01 20:12:34;;;;;;;;;;;;;;;5.71;100.00;100067.13;4968073;28;19922;-89
2022/11/01 20:16:11;;;;;;;;;;;;;;;;;;;;;
2022/11/01 20:18:17;;;;;;;;;;;;;;;5.75;100.00;100070.56;4982458;28;20270;-89
2022/11/01 20:20:43;;;;;;;;;;;;;;;5.68;100.00;100077.69;4990290;28;19984;-90
2022/11/01 20:23:39;;;;;;;;;;;;;;;5.72;100.00;100073.25;4982383;28;19918;-89
2022/11/01 20:26:27;;;;;;;;;;;;;;;5.70;100.00;100072.41;4974261;28;19965;-92
2022/11/01 20:29:13;;;;;;;;;;;;;;;5.70;100.00;100075.91;4986805;28;20348;-89
2022/11/01 20:34:41;;;;;;;;;;;;;;;5.66;100.00;100076.81;4940938;28;19925;-94
2022/11/01 20:37:07;;;;;;;;;;;;;;;5.67;100.00;100077.72;4993026;28;19964;-90
2022/11/01 20:39:35;;;;;;;;;;;;;;;5.66;100.00;100081.22;4992298;28;19925;-90
2022/11/01 20:42:00;;;;;;;;;;;;;;;5.66;100.00;100082.09;4992676;28;19922;-87
2022/11/01 20:44:26;;;;;;;;;;;;;;;5.66;100.00;100087.34;4990812;28;19929;-89
2022/11/01 20:46:51;;;;;;;;;;;;;;;5.63;100.00;100088.28;4981825;28;20370;-88
2022/11/01 20:49:26;;;;;;;;;;;;;;;5.58;100.00;100094.50;4992725;28;19965;-88
2022/11/01 20:51:51;;;;;;;;;;;;;;;5.63;100.00;100095.28;4988569;28;19921;-89
2022/11/01 20:54:19;;;;;;;;;;;;;;;5.64;100.00;100091.78;4981692;28;19969;-89
2022/11/01 20:56:44;;;;;;;;;;;;;;;5.63;100.00;100093.53;4982055;28;20380;-89
2022/11/01 20:59:10;;;;;;;;;;;;;;;5.61;100.00;100095.31;4991002;28;19921;-89
2022/11/01 21:01:45;;;;;;;;;;;;;;;5.66;100.00;100094.38;4990884;28;19957;-91
2022/11/01 21:04:31;;;;;;;;;;;;;;;5.60;100.00;100097.97;4995238;28;19941;-95
2022/11/01 21:06:56;;;;;;;;;;;;;;;5.63;100.00;100093.53;4943872;28;19918;-90
2022/11/01 21:09:21;;;;;;;;;;;;;;;5.67;100.00;100096.13;4992741;28;19941;-86
2022/11/01 21:11:47;;;;;;;;;;;;;;;5.66;100.00;100097.00;4991002;28;19918;-88
2022/11/01 21:14:14;;;;;;;;;;;;;;;5.64;100.00;100099.66;4993544;28;20270;-87
2022/11/01 21:16:39;;;;;;;;;;;;;;;5.62;100.00;100093.56;4993446;28;19918;-86
2022/11/01 21:19:12;;;;;;;;;;;;;;;5.60;100.00;100104.13;4994221;28;20424;-88
2022/11/01 21:21:38;;;;;;;;;;;;;;;5.61;100.00;100103.19;4993238;28;20332;-85
2022/11/01 21:24:22;;;;;;;;;;;;;;;5.58;100.00;100105.03;4992075;28;19918;-88
2022/11/01 21:26:47;;;;;;;;;;;;;;;5.57;100.00;100098.91;4990944;28;20013;-88
2022/11/01 21:29:18;;;;;;;;;;;;;;;5.66;100.00;100099.63;4993806;28;19961;-88
2022/11/01 21:31:43;;;;;;;;;;;;;;;5.61;100.00;100103.19;4992023;28;20008;-89
2022/11/01 21:34:14;;;;;;;;;;;;;;;5.58;100.00;100112.91;4992084;28;20047;-89
2022/11/01 21:36:43;;;;;;;;;;;;;;;5.55;100.00;100100.69;4993231;28;19917;-90
2022/11/01 21:39:11;;;;;;;;;;;;;;;5.58;100.00;100107.66;4994148;28;19925;-86
2022/11/01 21:42:05;;;;;;;;;;;;;;;5.54;100.00;100109.47;4990784;28;20357;-87
2022/11/01 21:44:37;;;;;;;;;;;;;;;5.53;100.00;100112.13;4980631;28;19929;-89
2022/11/01 21:50:22;;;;;;;;;;;;;;;5.58;100.00;100105.88;5053087;23;20013;-86
2022/11/01 21:52:49;;;;;;;;;;;;;;;5.60;100.00;100104.13;4995410;28;20361;-88
2022/11/01 21:55:20;;;;;;;;;;;;;;;5.56;100.00;100106.81;4995731;28;19917;-89
2022/11/01 21:57:45;;;;;;;;;;;;;;;5.59;100.00;100102.38;4993998;28;19922;-88
2022/11/01 22:00:11;;;;;;;;;;;;;;;5.64;100.00;100104.91;4995429;28;19917;-88
2022/11/01 22:02:39;;;;;;;;;;;;;;;5.59;100.00;100102.38;4996657;28;20297;-88
2022/11/01 22:05:09;;;;;;;;;;;;;;;5.60;100.00;100105.84;4995312;28;19925;-87
2022/11/01 22:07:34;;;;;;;;;;;;;;;5.60;100.00;100108.47;4995019;28;20365;-88
2022/11/01 22:10:02;;;;;;;;;;;;;;;5.55;100.00;100107.69;4995638;28;20037;-87
2022/11/01 22:12:27;;;;;;;;;;;;;;;5.53;100.00;100097.22;4995369;28;19918;-87
2022/11/01 22:14:53;;;;;;;;;;;;;;;5.52;100.00;100100.75;4995120;28;19925;-86
2022/11/01 22:17:20;;;;;;;;;;;;;;;5.55;100.00;100097.19;4995632;28;20008;-88
2022/11/01 22:20:01;;;;;;;;;;;;;;;5.54;100.00;100098.97;4994986;28;20288;-94
2022/11/01 22:22:26;;;;;;;;;;;;;;;5.53;100.00;100106.88;4995007;28;19922;-89
2022/11/01 22:24:52;;;;;;;;;;;;;;;5.54;100.00;100098.09;4996193;28;19918;-89
2022/11/01 22:27:19;;;;;;;;;;;;;;;5.53;100.00;100102.47;4993506;28;20377;-88
2022/11/01 22:29:47;;;;;;;;;;;;;;;5.52;100.00;100105.13;4994787;28;20004;-89
2022/11/01 22:32:12;;;;;;;;;;;;;;;5.53;100.00;100102.47;4996058;28;20420;-89
2022/11/01 22:34:38;;;;;;;;;;;;;;;5.58;100.00;100098.00;4994731;28;20012;-88
2022/11/01 22:37:12;;;;;;;;;;;;;;;5.60;100.00;100104.13;4995000;28;19918;-87
2022/11/01 22:39:38;;;;;;;;;;;;;;;5.56;100.00;100105.03;4994696;28;19914;-89
2022/11/01 22:42:13;;;;;;;;;;;;;;;5.55;100.00;100105.06;4993242;28;19918;-88
2022/11/01 22:44:40;;;;;;;;;;;;;;;5.51;100.00;100093.75;4995818;28;19918;-88
2022/11/01 22:47:13;;;;;;;;;;;;;;;5.52;100.00;100097.25;4995724;28;19987;-89
2022/11/01 22:49:40;;;;;;;;;;;;;;;5.51;100.00;100103.41;4995968;28;19932;-89
2022/11/01 22:52:18;;;;;;;;;;;;;;;5.53;100.00;100101.59;4994662;28;19964;-87
2022/11/01 22:54:47;;;;;;;;;;;;;;;5.46;100.00;100092.97;4994319;28;20361;-87
2022/11/01 22:57:14;;;;;;;;;;;;;;;5.46;100.00;100085.09;4994462;28;19925;-89
2022/11/01 22:59:45;;;;;;;;;;;;;;;5.43;100.00;100093.88;4995449;28;19918;-87
2022/11/01 23:02:23;;;;;;;;;;;;;;;5.68;100.00;100085.59;4994920;28;19925;-87
2022/11/01 23:04:53;;;;;;;;;;;;;;;6.31;100.00;100088.78;4994200;28;19940;-87
2022/11/01 23:07:25;;;;;;;;;;;;;;;6.67;100.00;100080.97;4995342;28;20276;-89
2022/11/01 23:09:51;;;;;;;;;;;;;;;6.93;100.00;100079.56;4995415;28;20369;-87
2022/11/01 23:15:04;;;;;;;;;;;;;;;7.31;100.00;100083.00;4995718;28;20033;-88
2022/11/01 23:17:40;;;;;;;;;;;;;;;7.42;100.00;100079.22;4994580;28;19926;-88
2022/11/01 23:20:08;;;;;;;;;;;;;;;7.55;100.00;100078.91;4996216;28;19918;-86
2022/11/01 23:26:01;;;;;;;;;;;;;;;7.76;100.00;100067.78;4956570;28;20432;-88
2022/11/01 23:28:26;;;;;;;;;;;;;;;7.84;100.00;100070.22;4974675;28;19922;-89
2022/11/01 23:30:52;;;;;;;;;;;;;;;7.90;100.00;100070.06;4974317;28;19918;-88
2022/11/01 23:33:19;;;;;;;;;;;;;;;7.93;100.00;100080.53;4978311;28;20035;-87
2022/11/01 23:35:55;;;;;;;;;;;;;;;8.00;100.00;100074.16;4993691;28;19929;-87
2022/11/01 23:38:24;;;;;;;;;;;;;;;8.07;100.00;100066.94;4995514;28;19917;-92
2022/11/01 23:41:33;;;;;;;;;;;;;;;8.15;100.00;100069.38;4997813;28;20077;-96
2022/11/01 23:44:00;;;;;;;;;;;;;;;8.17;100.00;100062.28;4995968;28;19961;-91
2022/11/01 23:46:26;;;;;;;;;;;;;;;8.24;100.00;100068.25;4995737;28;19918;-89
2022/11/01 23:49:00;;;;;;;;;;;;;;;8.29;100.00;100055.78;4994846;28;20017;-92
2022/11/01 23:51:48;;;;;;;;;;;;;;;8.32;100.00;100060.97;4996773;28;19925;-96
2022/11/01 23:54:19;;;;;;;;;;;;;;;8.37;100.00;100059.06;4994063;28;19913;-87
2022/11/01 23:56:47;;;;;;;;;;;;;;;8.43;100.00;100061.56;4992312;28;20348;-92
2022/11/01 23:59:14;;;;;;;;;;;;;;;8.46;100.00;100057.97;4993793;28;19918;-91
